createdAt,value
2022-08-04T00:02:14.171Z,100362.00
2022-08-04T00:07:52.489Z,100356.47
2022-08-04T00:13:24.745Z,100355.94
2022-08-04T00:18:58.325Z,100352.66
2022-08-04T00:24:31.605Z,100359.84
2022-08-04T00:30:01.533Z,100358.19
2022-08-04T00:35:31.003Z,100369.25
2022-08-04T00:41:08.170Z,100362.03
2022-08-04T00:46:53.857Z,100371.59
2022-08-04T00:52:37.508Z,100376.91
2022-08-04T00:58:30.916Z,100386.03
2022-08-04T01:04:05.061Z,100392.47
2022-08-04T01:09:45.439Z,100395.88
2022-08-04T01:15:25.699Z,100389.84
2022-08-04T01:21:27.203Z,100390.75
2022-08-04T01:27:03.817Z,100391.06
2022-08-04T01:32:38.942Z,100405.69
2022-08-04T01:38:18.238Z,100400.47
2022-08-04T01:43:55.708Z,100402.41
2022-08-04T01:49:40.092Z,100411.81
2022-08-04T01:55:11.581Z,100397.19
2022-08-04T02:00:46.110Z,100410.97
2022-08-04T02:06:31.666Z,100416.50
2022-08-04T02:12:06.649Z,100413.44
2022-08-04T02:17:56.075Z,100420.09
2022-08-04T02:23:31.928Z,100414.13
2022-08-04T02:29:09.680Z,100412.66
2022-08-04T02:34:48.574Z,100418.53
2022-08-04T02:40:22.590Z,100413.25
2022-08-04T02:45:56.848Z,100406.78
2022-08-04T02:51:28.644Z,100415.94
2022-08-04T02:57:01.131Z,100410.63
2022-08-04T03:02:41.962Z,100417.88
2022-08-04T03:08:40.044Z,100411.78
2022-08-04T03:14:42.105Z,100406.41
2022-08-04T03:20:46.498Z,100412.84
2022-08-04T03:27:05.768Z,100413.00
2022-08-04T03:33:16.476Z,100413.06
2022-08-04T03:39:04.312Z,100418.06
2022-08-04T03:44:59.351Z,100419.16
2022-08-04T03:51:34.892Z,100420.81
2022-08-04T03:57:37.754Z,100413.41
2022-08-04T04:03:32.650Z,100416.44
2022-08-04T04:09:30.083Z,100421.91
2022-08-04T04:15:31.589Z,100409.88
2022-08-04T04:21:23.134Z,100412.03
2022-08-04T04:27:05.233Z,100406.53
2022-08-04T04:32:53.713Z,100415.34
2022-08-04T04:38:36.238Z,100416.94
2022-08-04T04:44:36.996Z,100415.81
2022-08-04T04:50:15.885Z,100423.69
2022-08-04T04:55:50.243Z,100420.09
2022-08-04T05:01:42.187Z,100423.28
2022-08-04T05:07:33.540Z,100430.91
2022-08-04T05:14:37.624Z,100445.53
2022-08-04T05:19:19.851Z,100451.53
2022-08-04T05:24:53.558Z,100458.88
2022-08-04T05:30:26.069Z,100461.25
2022-08-04T05:36:17.853Z,100463.03
2022-08-04T05:41:55.327Z,100467.94
2022-08-04T05:47:27.066Z,100474.22
2022-08-04T05:53:01.449Z,100463.88
2022-08-04T05:58:31.456Z,100461.06
2022-08-04T06:04:04.762Z,100465.94
2022-08-04T06:09:39.392Z,100474.47
2022-08-04T06:15:13.931Z,100479.03
2022-08-04T06:20:50.236Z,100473.41
2022-08-04T06:26:21.735Z,100476.00
2022-08-04T06:32:27.364Z,100473.28
2022-08-04T06:37:49.328Z,100478.41
2022-08-04T06:43:20.877Z,100467.53
2022-08-04T06:48:52.157Z,100467.75
2022-08-04T06:54:21.311Z,100475.69
2022-08-04T06:59:57.214Z,100471.06
2022-08-04T07:05:26.741Z,100463.56
2022-08-04T07:10:58.555Z,100458.91
2022-08-04T07:16:30.998Z,100459.22
2022-08-04T07:22:16.408Z,100451.97
2022-08-04T07:27:51.559Z,100448.16
2022-08-04T07:33:22.473Z,100441.22
2022-08-04T07:38:52.441Z,100460.41
2022-08-04T07:44:21.514Z,100464.97
2022-08-04T07:49:56.187Z,100465.88
2022-08-04T07:55:26.910Z,100466.78
2022-08-04T08:00:55.894Z,100468.16
2022-08-04T08:06:32.664Z,100467.31
2022-08-04T08:12:36.284Z,100477.16
2022-08-04T08:17:58.218Z,100482.44
2022-08-04T08:23:32.683Z,100481.19
2022-08-04T08:29:01.536Z,100482.28
2022-08-04T08:34:32.468Z,100489.16
2022-08-04T08:40:41.142Z,100486.66
2022-08-04T08:46:50.233Z,100494.09
2022-08-04T08:53:01.452Z,100500.22
2022-08-04T08:58:39.830Z,100497.91
2022-08-04T09:04:33.625Z,100499.97
2022-08-04T09:10:18.574Z,100499.88
2022-08-04T09:15:59.786Z,100503.69
2022-08-04T09:21:36.316Z,100521.13
2022-08-04T09:27:15.537Z,100503.47
2022-08-04T09:32:56.657Z,100498.38
2022-08-04T09:38:36.107Z,100508.59
2022-08-04T09:44:49.242Z,100496.84
2022-08-04T09:50:19.743Z,100493.91
2022-08-04T09:56:03.536Z,100496.13
2022-08-04T10:01:34.309Z,100500.94
2022-08-04T10:07:31.448Z,100486.88
2022-08-04T10:13:36.313Z,100484.59
2022-08-04T10:19:16.936Z,100478.38
2022-08-04T10:24:59.842Z,100496.47
2022-08-04T10:30:33.254Z,100496.72
2022-08-04T10:36:07.674Z,100493.06
2022-08-04T10:41:46.561Z,100478.88
2022-08-04T10:47:20.398Z,100468.00
2022-08-04T10:52:58.547Z,100464.53
2022-08-04T10:58:46.998Z,100459.47
2022-08-04T11:04:27.850Z,100469.78
2022-08-04T11:09:57.955Z,100477.59
2022-08-04T11:15:35.582Z,100491.34
2022-08-04T11:21:13.657Z,100485.59
2022-08-04T11:26:49.537Z,100483.88
2022-08-04T11:32:24.431Z,100482.47
2022-08-04T11:38:02.666Z,100473.22
2022-08-04T11:44:02.801Z,100469.63
2022-08-04T11:49:56.809Z,100463.69
2022-08-04T11:55:28.326Z,100452.88
2022-08-04T12:01:13.220Z,100457.03
2022-08-04T12:07:04.681Z,100449.19
2022-08-04T12:12:43.274Z,100425.78
2022-08-04T12:18:22.299Z,100431.03
2022-08-04T12:24:00.524Z,100435.53
2022-08-04T12:29:36.121Z,100428.03
2022-08-04T12:35:14.985Z,100428.75
2022-08-04T12:40:51.010Z,100425.88
2022-08-04T12:46:24.002Z,100412.81
2022-08-04T12:52:08.397Z,100414.13
2022-08-04T12:57:41.657Z,100416.09
2022-08-04T13:03:13.871Z,100413.97
2022-08-04T13:08:47.486Z,100400.38
2022-08-04T13:14:27.126Z,100405.13
2022-08-04T13:19:57.462Z,100406.94
2022-08-04T13:26:44.209Z,100406.38
2022-08-04T13:31:24.723Z,100408.59
2022-08-04T13:36:56.554Z,100407.59
2022-08-04T13:42:27.075Z,100397.44
2022-08-04T13:48:15.735Z,100402.72
2022-08-04T13:53:57.870Z,100401.81
2022-08-04T13:59:37.812Z,100405.28
2022-08-04T14:05:18.513Z,100410.38
2022-08-04T14:10:55.727Z,100412.56
2022-08-04T14:16:24.358Z,100412.41
2022-08-04T14:21:54.672Z,100427.72
2022-08-04T14:27:23.643Z,100424.66
2022-08-04T14:32:58.123Z,100422.81
2022-08-04T14:38:43.078Z,100430.63
2022-08-04T14:44:12.503Z,100410.50
2022-08-04T14:49:55.561Z,100409.31
2022-08-04T14:55:26.501Z,100397.13
2022-08-04T15:00:58.444Z,100402.91
2022-08-04T15:06:29.714Z,100408.31
2022-08-04T15:11:59.910Z,100424.00
2022-08-04T15:17:30.572Z,100416.75
2022-08-04T15:22:59.225Z,100430.50
2022-08-04T15:28:32.001Z,100444.19
2022-08-04T15:34:01.289Z,100442.09
2022-08-04T15:39:36.989Z,100436.16
2022-08-04T15:45:21.121Z,100444.56
2022-08-04T15:51:08.406Z,100443.81
2022-08-04T15:57:02.769Z,100441.56
2022-08-04T16:02:43.912Z,100441.94
2022-08-04T16:08:18.184Z,100433.00
2022-08-04T16:14:09.460Z,100436.31
2022-08-04T16:19:52.033Z,100443.84
2022-08-04T16:25:45.058Z,100447.44
2022-08-04T16:31:15.454Z,100442.16
2022-08-04T16:37:02.290Z,100433.59
2022-08-04T16:42:36.055Z,100429.34
2022-08-04T16:48:09.145Z,100435.25
2022-08-04T16:53:53.506Z,100430.00
2022-08-04T16:59:32.391Z,100421.63
2022-08-04T17:05:07.489Z,100425.22
2022-08-04T17:10:40.194Z,100438.56
2022-08-04T17:16:13.801Z,100452.59
2022-08-04T17:21:48.160Z,100464.31
2022-08-04T17:28:10.935Z,100472.16
2022-08-04T17:33:15.072Z,100483.25
2022-08-04T17:38:46.653Z,100497.16
2022-08-04T17:44:23.347Z,100503.84
2022-08-04T17:49:52.668Z,100509.41
2022-08-04T17:55:24.277Z,100520.34
2022-08-04T18:01:23.094Z,100533.44
2022-08-04T18:06:53.922Z,100526.38
2022-08-04T18:12:24.628Z,100521.88
2022-08-04T18:18:22.088Z,100522.53
2022-08-04T18:23:50.821Z,100516.59
2022-08-04T18:29:31.110Z,100521.44
2022-08-04T18:35:07.065Z,100508.84
2022-08-04T18:40:52.832Z,100511.56
2022-08-04T18:46:23.664Z,100512.78
2022-08-04T18:51:58.485Z,100512.22
2022-08-04T18:57:59.767Z,100519.00
2022-08-04T19:03:22.902Z,100511.44
2022-08-04T19:08:53.341Z,100507.06
2022-08-04T19:14:22.366Z,100505.31
2022-08-04T19:19:52.366Z,100493.63
2022-08-04T19:25:41.683Z,100485.94
2022-08-04T19:31:19.114Z,100479.56
2022-08-04T19:36:53.995Z,100473.53
2022-08-04T19:42:25.686Z,100451.63
2022-08-04T19:48:17.991Z,100445.38
2022-08-04T19:53:45.081Z,100449.28
2022-08-04T19:59:18.541Z,100436.25
2022-08-04T20:04:47.344Z,100432.84
2022-08-04T20:10:17.481Z,100427.81
2022-08-04T20:15:57.393Z,100422.59
2022-08-04T20:21:36.487Z,100426.19
2022-08-04T20:27:16.931Z,100437.28
2022-08-04T20:32:52.810Z,100436.75
2022-08-04T20:38:33.112Z,100447.44
2022-08-04T20:44:03.312Z,100442.63
2022-08-04T20:49:35.271Z,100448.53
2022-08-04T20:55:05.866Z,100440.72
2022-08-04T21:00:34.961Z,100457.19
2022-08-04T21:06:10.220Z,100445.25
2022-08-04T21:11:39.234Z,100447.00
2022-08-04T21:17:11.311Z,100444.31
2022-08-04T21:22:47.431Z,100447.50
2022-08-04T21:28:20.163Z,100459.44
2022-08-04T21:33:52.255Z,100474.28
2022-08-04T21:39:22.790Z,100459.13
2022-08-04T21:45:02.300Z,100468.44
2022-08-04T21:50:31.842Z,100467.09
2022-08-04T21:56:05.957Z,100468.28
2022-08-04T22:01:50.914Z,100462.22
2022-08-04T22:07:23.721Z,100446.84
2022-08-04T22:12:54.666Z,100448.91
2022-08-04T22:18:28.076Z,100441.22
2022-08-04T22:23:59.592Z,100438.47
2022-08-04T22:29:30.728Z,100445.88
2022-08-04T22:35:02.994Z,100440.47
2022-08-04T22:40:50.030Z,100446.94
2022-08-04T22:46:26.244Z,100448.06
2022-08-04T22:51:55.956Z,100453.88
2022-08-04T22:57:43.449Z,100451.53
2022-08-04T23:03:36.928Z,100454.91
2022-08-04T23:09:06.378Z,100467.41
2022-08-04T23:14:46.158Z,100476.81
2022-08-04T23:20:23.153Z,100456.72
2022-08-04T23:26:08.483Z,100463.88
2022-08-04T23:31:40.934Z,100463.53
2022-08-04T23:37:12.259Z,100458.88
2022-08-04T23:42:43.657Z,100468.59
2022-08-04T23:48:15.908Z,100479.97
2022-08-04T23:54:02.447Z,100464.22
2022-08-04T23:59:51.762Z,100458.94
